createdAt,value
2022-11-11T00:02:39.791Z,6.98
2022-11-11T00:07:43.442Z,7.04
2022-11-11T00:12:46.398Z,7.10
2022-11-11T00:18:09.219Z,7.11
2022-11-11T00:23:40.749Z,7.11
2022-11-11T00:28:43.520Z,7.10
2022-11-11T00:33:46.478Z,7.12
2022-11-11T00:38:50.020Z,7.14
2022-11-11T00:43:52.956Z,7.13
2022-11-11T00:49:14.666Z,7.10
2022-11-11T00:54:17.593Z,7.12
2022-11-11T00:59:20.522Z,7.16
2022-11-11T01:04:24.287Z,7.07
2022-11-11T01:09:27.299Z,6.99
2022-11-11T01:14:30.964Z,7.00
2022-11-11T01:19:33.813Z,7.06
2022-11-11T01:24:38.733Z,7.11
2022-11-11T01:29:41.740Z,7.14
2022-11-11T01:34:44.946Z,7.21
2022-11-11T01:39:47.912Z,7.26
2022-11-11T01:44:51.507Z,7.31
2022-11-11T01:49:57.811Z,7.37
2022-11-11T01:55:16.003Z,7.45
2022-11-11T02:00:19.629Z,7.56
2022-11-11T02:05:42.150Z,7.63
2022-11-11T02:10:45.375Z,7.69
2022-11-11T02:15:48.225Z,7.74
2022-11-11T02:20:51.012Z,7.83
2022-11-11T02:25:53.948Z,7.89
2022-11-11T02:30:56.860Z,7.91
2022-11-11T02:35:59.852Z,7.92
2022-11-11T02:41:21.406Z,7.93
2022-11-11T02:46:24.401Z,7.86
2022-11-11T02:51:27.184Z,7.80
2022-11-11T02:56:48.866Z,7.69
2022-11-11T03:01:51.968Z,7.50
2022-11-11T03:06:55.129Z,7.33
2022-11-11T03:11:58.120Z,7.19
2022-11-11T03:17:19.550Z,7.08
2022-11-11T03:27:46.586Z,6.90
2022-11-11T03:32:49.375Z,6.80
2022-11-11T03:38:10.955Z,6.74
2022-11-11T03:43:16.261Z,6.65
2022-11-11T03:48:19.178Z,6.57
2022-11-11T03:53:22.783Z,6.58
2022-11-11T03:58:26.286Z,6.66
2022-11-11T04:03:47.855Z,6.70
2022-11-11T04:09:09.467Z,6.73
2022-11-11T04:14:32.531Z,6.74
2022-11-11T04:19:55.728Z,6.74
2022-11-11T04:25:17.226Z,6.72
2022-11-11T04:30:20.044Z,6.79
2022-11-11T04:35:24.157Z,6.89
2022-11-11T04:40:45.795Z,7.01
2022-11-11T04:45:48.608Z,7.14
2022-11-11T04:50:51.530Z,7.16
2022-11-11T04:56:13.039Z,7.15
2022-11-11T05:01:35.853Z,7.18
2022-11-11T05:06:59.612Z,7.23
2022-11-11T05:12:03.110Z,7.30
2022-11-11T05:17:25.127Z,7.34
2022-11-11T05:22:40.931Z,7.41
2022-11-11T05:27:43.871Z,7.46
2022-11-11T05:32:46.661Z,7.44
2022-11-11T05:38:09.382Z,7.47
2022-11-11T05:43:12.256Z,7.50
2022-11-11T05:48:15.385Z,7.50
2022-11-11T05:53:24.680Z,7.55
2022-11-11T05:58:27.875Z,7.62
2022-11-11T06:03:30.705Z,7.68
2022-11-11T06:08:33.557Z,7.80
2022-11-11T06:13:36.480Z,7.88
2022-11-11T06:18:39.290Z,7.87
2022-11-11T06:23:44.532Z,7.90
2022-11-11T06:28:57.725Z,7.94
2022-11-11T06:34:00.862Z,8.00
2022-11-11T06:39:03.624Z,8.08
2022-11-11T06:44:06.438Z,8.18
2022-11-11T06:49:09.289Z,8.23
2022-11-11T06:54:12.187Z,8.28
2022-11-11T06:59:15.204Z,8.32
2022-11-11T07:04:18.034Z,8.38
2022-11-11T07:09:20.830Z,8.40
2022-11-11T07:14:23.656Z,8.43
2022-11-11T07:19:26.507Z,8.49
2022-11-11T07:24:29.793Z,8.55
2022-11-11T07:29:32.554Z,8.54
2022-11-11T07:34:35.583Z,8.55
2022-11-11T07:39:39.743Z,8.60
2022-11-11T07:44:49.192Z,8.68
2022-11-11T07:49:52.553Z,8.75
2022-11-11T07:54:55.449Z,8.84
2022-11-11T07:59:58.316Z,8.95
2022-11-11T08:05:01.196Z,9.04
2022-11-11T08:10:04.672Z,9.16
2022-11-11T08:15:09.009Z,9.26
2022-11-11T08:20:12.444Z,9.30
2022-11-11T08:25:15.527Z,9.36
2022-11-11T08:30:18.522Z,9.48
2022-11-11T08:35:21.292Z,9.66
2022-11-11T08:40:24.791Z,9.86
2022-11-11T08:45:29.407Z,9.97
2022-11-11T08:50:33.624Z,10.08
2022-11-11T08:55:36.847Z,10.18
2022-11-11T09:00:39.875Z,10.27
2022-11-11T09:05:42.784Z,10.35
2022-11-11T09:10:45.770Z,10.47
2022-11-11T09:15:48.627Z,10.56
2022-11-11T09:20:52.051Z,10.61
2022-11-11T09:25:55.077Z,10.56
2022-11-11T09:31:22.778Z,10.66
2022-11-11T09:36:24.069Z,10.79
2022-11-11T09:42:14.723Z,10.86
2022-11-11T09:47:36.027Z,10.93
2022-11-11T09:52:56.288Z,11.02
2022-11-11T09:58:04.542Z,11.14
2022-11-11T10:03:10.311Z,11.11
2022-11-11T10:08:29.895Z,11.17
2022-11-11T10:13:37.915Z,11.21
2022-11-11T10:19:17.100Z,11.19
2022-11-11T10:24:30.253Z,11.13
2022-11-11T10:29:44.595Z,11.16
2022-11-11T10:34:47.541Z,11.14
2022-11-11T10:40:16.353Z,11.21
2022-11-11T10:45:32.178Z,11.28
2022-11-11T10:51:02.103Z,11.34
2022-11-11T10:56:11.815Z,11.43
2022-11-11T11:01:20.435Z,11.51
2022-11-11T11:06:31.795Z,11.58
2022-11-11T11:11:40.333Z,11.67
2022-11-11T11:16:51.236Z,11.70
2022-11-11T11:21:59.624Z,11.70
2022-11-11T11:27:08.299Z,11.63
2022-11-11T11:32:19.609Z,11.63
2022-11-11T11:37:24.782Z,11.62
2022-11-11T11:42:37.545Z,11.62
2022-11-11T11:48:09.339Z,11.63
2022-11-11T11:54:01.264Z,11.62
2022-11-11T11:59:22.916Z,11.57
2022-11-11T12:04:48.279Z,11.57
2022-11-11T12:10:33.937Z,11.60
2022-11-11T12:16:07.679Z,11.66
2022-11-11T12:21:18.771Z,11.72
2022-11-11T12:26:44.442Z,11.74
2022-11-11T12:32:02.546Z,11.77
2022-11-11T12:37:24.300Z,11.78
2022-11-11T12:42:37.181Z,11.80
2022-11-11T12:48:39.115Z,11.82
2022-11-11T12:53:56.015Z,11.78
2022-11-11T12:59:36.015Z,11.69
2022-11-11T13:04:57.503Z,11.61
2022-11-11T13:10:45.458Z,11.61
2022-11-11T13:15:51.627Z,11.55
2022-11-11T13:21:00.157Z,11.47
2022-11-11T13:26:05.204Z,11.45
2022-11-11T13:31:20.370Z,11.38
2022-11-11T13:36:26.775Z,11.35
2022-11-11T13:41:35.859Z,11.37
2022-11-11T13:46:50.246Z,11.35
2022-11-11T13:52:22.667Z,11.33
2022-11-11T13:57:32.259Z,11.32
2022-11-11T14:02:35.705Z,11.27
2022-11-11T14:07:44.793Z,11.23
2022-11-11T14:12:51.542Z,11.18
2022-11-11T14:17:54.678Z,11.13
2022-11-11T14:23:18.758Z,11.08
2022-11-11T14:28:27.751Z,11.00
2022-11-11T14:33:49.100Z,10.90
2022-11-11T14:39:22.876Z,10.87
2022-11-11T14:44:25.729Z,10.80
2022-11-11T14:49:57.911Z,10.74
2022-11-11T14:55:07.901Z,10.67
2022-11-11T15:00:21.181Z,10.62
2022-11-11T15:05:49.830Z,10.57
2022-11-11T15:11:33.476Z,10.54
2022-11-11T15:17:17.337Z,10.46
2022-11-11T15:22:36.987Z,10.44
2022-11-11T15:28:02.452Z,10.44
2022-11-11T15:33:41.807Z,10.39
2022-11-11T15:38:44.748Z,10.33
2022-11-11T15:43:48.625Z,10.24
2022-11-11T15:48:53.150Z,10.14
2022-11-11T15:54:32.072Z,10.08
2022-11-11T15:59:42.749Z,10.00
2022-11-11T16:05:05.899Z,9.93
2022-11-11T16:10:38.337Z,9.90
2022-11-11T16:15:47.167Z,9.89
2022-11-11T16:21:11.724Z,9.89
2022-11-11T16:26:15.668Z,9.91
2022-11-11T16:31:45.259Z,9.95
2022-11-11T16:37:02.605Z,10.02
2022-11-11T16:42:22.705Z,10.08
2022-11-11T16:47:32.900Z,10.13
2022-11-11T16:52:57.234Z,10.15
2022-11-11T16:58:20.621Z,10.16
2022-11-11T17:03:28.311Z,10.17
2022-11-11T17:08:46.030Z,10.20
2022-11-11T17:19:09.148Z,10.20
2022-11-11T17:24:33.346Z,10.19
2022-11-11T17:29:41.271Z,10.19
2022-11-11T17:34:45.001Z,10.22
2022-11-11T17:39:51.028Z,10.24
2022-11-11T17:44:54.082Z,10.24
2022-11-11T17:49:57.590Z,10.20
2022-11-11T17:55:00.613Z,10.17
2022-11-11T18:00:04.331Z,10.17
2022-11-11T18:05:07.627Z,10.16
2022-11-11T18:10:10.787Z,10.16
2022-11-11T18:15:13.603Z,10.17
2022-11-11T18:20:23.563Z,10.15
2022-11-11T18:25:26.417Z,10.11
2022-11-11T18:30:29.851Z,10.12
2022-11-11T18:35:33.698Z,10.10
2022-11-11T18:40:38.958Z,10.05
2022-11-11T18:45:41.886Z,10.00
2022-11-11T18:50:44.815Z,9.99
2022-11-11T18:55:52.770Z,9.98
2022-11-11T19:01:15.428Z,9.98
2022-11-11T19:06:20.645Z,9.99
2022-11-11T19:11:24.222Z,9.99
2022-11-11T19:16:27.225Z,9.98
2022-11-11T19:21:33.347Z,9.98
2022-11-11T19:26:36.342Z,10.00
2022-11-11T19:31:39.291Z,9.91
2022-11-11T19:36:42.374Z,9.87
2022-11-11T19:41:45.286Z,9.81
2022-11-11T19:46:49.684Z,9.73
2022-11-11T19:51:57.088Z,9.70
2022-11-11T19:57:01.119Z,9.66
2022-11-11T20:02:04.064Z,9.65
2022-11-11T20:07:09.337Z,9.61
2022-11-11T20:12:12.341Z,9.62
2022-11-11T20:17:18.822Z,9.60
2022-11-11T20:22:27.228Z,9.63
2022-11-11T20:27:30.379Z,9.66
2022-11-11T20:32:33.156Z,9.64
2022-11-11T20:37:38.980Z,9.67
2022-11-11T20:42:41.953Z,9.71
2022-11-11T20:47:46.887Z,9.74
2022-11-11T20:52:50.987Z,9.78
2022-11-11T20:57:53.972Z,9.82
2022-11-11T21:02:57.462Z,9.86
2022-11-11T21:08:01.143Z,9.90
2022-11-11T21:13:04.393Z,9.92
2022-11-11T21:18:27.578Z,9.89
2022-11-11T21:23:32.300Z,9.89
2022-11-11T21:28:37.187Z,9.91
2022-11-11T21:33:40.023Z,9.90
2022-11-11T21:38:43.846Z,9.92
2022-11-11T21:43:47.201Z,9.92
2022-11-11T21:48:50.254Z,9.90
2022-11-11T21:54:02.506Z,9.92
2022-11-11T21:59:07.073Z,9.90
2022-11-11T22:04:13.559Z,9.82
2022-11-11T22:09:16.807Z,9.82
2022-11-11T22:14:20.173Z,9.83
2022-11-11T22:19:23.184Z,9.84
2022-11-11T22:24:26.014Z,9.83
2022-11-11T22:29:28.848Z,9.87
2022-11-11T22:34:31.619Z,9.91
2022-11-11T22:39:34.537Z,9.90
2022-11-11T22:44:37.409Z,9.90
2022-11-11T22:49:40.324Z,9.91
2022-11-11T22:54:43.158Z,9.91
2022-11-11T22:59:46.148Z,9.93
2022-11-11T23:04:49.120Z,9.97
2022-11-11T23:09:52.124Z,9.94
2022-11-11T23:14:56.777Z,9.95
2022-11-11T23:20:00.741Z,9.99
2022-11-11T23:25:03.913Z,10.01
2022-11-11T23:30:07.788Z,10.04
2022-11-11T23:35:10.695Z,10.05
2022-11-11T23:40:13.623Z,10.02
2022-11-11T23:45:16.453Z,10.02
2022-11-11T23:50:19.298Z,10.07
2022-11-11T23:55:22.153Z,10.03
